Time;durP1;ratioP1;P1;durP2;ratioP2;P2;SDS_P1;SDS_P2;PMS_P1;PMS_P2;Temp;Humidity;BMP_temperature;BMP_pressure;BME280_temperature;BME280_humidity;BME280_pressure;Samples;Min_cycle;Max_cycle;Signal;HPM_P1;HPM_P2
2022/04/12 00:01:05;;;;;;;3.60;3.40;;;6.50;61.00;;;6.34;47.86;95408.47;5061840;28;20474;-55
2022/04/12 00:03:32;;;;;;;3.60;3.33;;;6.40;61.20;;;6.31;47.87;95406.06;5066274;28;20464;-56
2022/04/12 00:05:59;;;;;;;6.30;3.57;;;6.40;60.30;;;6.28;48.09;95399.25;5054854;28;20562;-54
2022/04/12 00:08:28;;;;;;;5.63;3.53;;;6.40;61.20;;;6.27;47.99;95402.81;5056388;28;20964;-56
2022/04/12 00:10:55;;;;;;;6.50;4.10;;;6.40;61.90;;;6.26;47.85;95395.09;5059872;28;20581;-56
2022/04/12 00:13:23;;;;;;;7.73;3.13;;;6.40;61.50;;;6.23;48.49;95390.06;5062005;28;20466;-55
2022/04/12 00:15:50;;;;;;;5.23;3.63;;;6.40;62.20;;;6.21;48.36;95394.53;5055725;28;20481;-56
2022/04/12 00:21:03;;;;;;;7.60;3.40;;;6.30;62.40;;;6.20;48.58;95391.09;5064070;28;20470;-56
2022/04/12 00:23:31;;;;;;;4.87;4.23;;;6.30;62.50;;;6.23;48.98;95387.44;5063787;28;20582;-55
2022/04/12 00:25:59;;;;;;;5.93;4.63;;;6.30;62.70;;;6.21;48.42;95379.72;5056997;28;20471;-55
2022/04/12 00:28:28;;;;;;;4.67;3.70;;;6.30;62.10;;;6.20;48.14;95379.81;5058493;28;20466;-56
2022/04/12 00:30:55;;;;;;;4.57;3.77;;;6.30;62.20;;;6.16;48.25;95380.94;5058005;28;20502;-55
2022/04/12 00:33:23;;;;;;;7.03;3.57;;;6.30;62.00;;;6.12;48.35;95384.69;5065316;28;20459;-57
2022/04/12 00:35:50;;;;;;;7.83;4.00;;;6.20;62.00;;;6.07;48.52;95384.97;5057587;28;20482;-54
2022/04/12 00:38:22;;;;;;;4.40;3.40;;;6.20;62.10;;;6.01;48.33;95381.00;5057876;28;20465;-56
2022/04/12 00:40:50;;;;;;;5.97;3.70;;;6.10;62.40;;;5.95;48.84;95385.72;5060171;28;20478;-55
2022/04/12 00:43:19;;;;;;;5.93;3.87;;;6.10;62.60;;;5.92;48.89;95376.34;5054508;28;20952;-56
2022/04/12 00:45:46;;;;;;;5.50;4.40;;;6.00;63.20;;;5.88;48.84;95369.63;5053516;28;20479;-56
2022/04/12 00:48:14;;;;;;;7.97;4.60;;;6.00;63.20;;;5.85;49.37;95375.06;5053209;28;20455;-55
2022/04/12 00:50:41;;;;;;;6.90;4.10;;;6.00;63.90;;;5.82;49.02;95375.25;5058863;28;20491;-55
2022/04/12 00:53:09;;;;;;;8.83;4.80;;;5.90;64.00;;;5.75;49.34;95375.66;5054829;28;20477;-56
2022/04/12 00:55:36;;;;;;;8.00;4.10;;;5.90;63.90;;;5.73;49.33;95374.91;5056203;28;20479;-54
2022/04/12 00:58:07;;;;;;;6.07;4.47;;;5.90;64.00;;;5.72;49.14;95381.06;5052935;28;20452;-56
2022/04/12 01:00:35;;;;;;;6.27;4.13;;;5.80;64.00;;;5.68;49.11;95366.53;5055916;28;20612;-56
2022/04/12 01:03:02;;;;;;;8.30;4.57;;;5.80;64.10;;;5.67;49.63;95359.66;5057821;28;20943;-57
2022/04/12 01:05:29;;;;;;;6.80;4.00;;;5.80;65.20;;;5.64;49.40;95367.66;5054978;28;20486;-54
2022/04/12 01:07:57;;;;;;;6.27;4.57;;;5.80;64.40;;;5.63;49.54;95371.19;5059287;28;20982;-56
2022/04/12 01:10:24;;;;;;;6.73;4.30;;;5.80;65.70;;;5.61;49.33;95370.47;5058337;28;20502;-56
2022/04/12 01:12:52;;;;;;;6.07;4.10;;;5.70;64.10;;;5.60;49.26;95368.78;5058050;28;20536;-56
2022/04/12 01:15:23;;;;;;;8.43;4.63;;;5.70;64.50;;;5.60;49.22;95374.00;5050328;28;20479;-55
2022/04/12 01:17:50;;;;;;;8.10;4.70;;;5.70;64.50;;;5.60;49.79;95374.00;5055239;28;20458;-54
2022/04/12 01:20:19;;;;;;;10.80;4.37;;;5.70;65.20;;;5.59;49.47;95376.72;5059371;28;20480;-55
2022/04/12 01:22:52;;;;;;;5.97;3.60;;;5.70;64.70;;;5.57;49.58;95369.81;5054369;28;20663;-54
2022/04/12 01:25:21;;;;;;;6.07;4.50;;;5.70;65.00;;;5.56;49.54;95369.91;5055025;28;20921;-54
2022/04/12 01:27:49;;;;;;;4.73;4.03;;;5.70;65.00;;;5.55;49.38;95363.88;5053177;28;20824;-57
2022/04/12 01:30:16;;;;;;;7.57;4.40;;;5.70;65.20;;;5.56;49.58;95367.28;5055370;28;21040;-54
2022/04/12 01:32:43;;;;;;;8.03;4.80;;;5.70;65.10;;;5.55;49.52;95363.03;5055547;28;20470;-56
2022/04/12 01:35:11;;;;;;;8.13;5.00;;;5.70;65.10;;;5.55;49.48;95366.47;5051453;28;20484;-55
2022/04/12 01:37:38;;;;;;;5.30;3.70;;;5.70;64.80;;;5.57;49.60;95361.16;5057139;28;20462;-57
2022/04/12 01:40:09;;;;;;;10.87;4.50;;;5.70;65.40;;;5.60;49.82;95360.97;5051794;28;21011;-57
2022/04/12 01:42:38;;;;;;;8.90;4.10;;;5.70;65.70;;;5.63;49.55;95359.94;5056513;28;20454;-55
2022/04/12 01:45:07;;;;;;;3.47;3.10;;;5.70;66.10;;;5.67;49.43;95364.00;5056399;28;20932;-55
2022/04/12 01:47:34;;;;;;;8.70;4.57;;;5.80;65.80;;;5.71;49.69;95368.94;5051265;28;20972;-54
2022/04/12 01:50:01;;;;;;;8.33;4.63;;;5.80;66.00;;;5.73;49.83;95354.03;5058099;28;20548;-55
2022/04/12 01:52:29;;;;;;;8.43;4.60;;;5.90;66.10;;;5.77;49.65;95366.88;5055889;28;20452;-57
2022/04/12 01:54:56;;;;;;;6.67;4.50;;;5.90;65.70;;;5.78;49.36;95363.31;5052581;28;20487;-56
2022/04/12 01:57:23;;;;;;;7.07;4.27;;;5.90;65.10;;;5.79;49.56;95371.06;5055584;28;20470;-56
2022/04/12 01:59:52;;;;;;;4.23;3.73;;;5.90;65.30;;;5.79;49.27;95367.63;5053308;28;20484;-56
2022/04/12 02:02:19;;;;;;;3.87;3.57;;;5.90;65.20;;;5.80;49.82;95366.69;5054603;28;20508;-56
2022/04/12 02:04:46;;;;;;;3.67;3.37;;;5.90;65.70;;;5.83;49.60;95366.50;5056325;28;20926;-55
2022/04/12 02:07:14;;;;;;;4.20;3.33;;;5.90;65.30;;;5.86;49.54;95368.91;5055729;28;20458;-54
2022/04/12 02:09:41;;;;;;;5.00;3.80;;;6.00;65.50;;;5.88;49.65;95361.81;5055325;28;20476;-55
2022/04/12 02:12:10;;;;;;;12.23;7.93;;;6.00;65.60;;;5.90;49.22;95358.16;5057595;28;20582;-55
2022/04/12 02:14:38;;;;;;;24.27;10.63;;;6.00;65.20;;;5.93;49.36;95363.19;5059322;28;20556;-56
2022/04/12 02:17:06;;;;;;;12.57;5.80;;;6.00;64.70;;;5.95;49.22;95357.00;5059912;28;20542;-54
2022/04/12 02:19:34;;;;;;;5.23;4.10;;;6.10;64.90;;;5.97;49.31;95356.03;5053431;28;20447;-56
2022/04/12 02:22:01;;;;;;;3.70;3.40;;;6.10;64.90;;;5.98;48.85;95349.88;5056422;28;20909;-54
2022/04/12 02:24:28;;;;;;;4.10;3.50;;;6.10;64.70;;;5.99;48.67;95348.91;5057605;28;20460;-55
2022/04/12 02:26:56;;;;;;;6.10;4.00;;;6.10;64.20;;;6.00;48.84;95348.00;5053461;28;20463;-56
2022/04/12 02:29:23;;;;;;;10.20;3.50;;;6.10;64.60;;;6.02;49.13;95346.09;5055890;28;20532;-56
2022/04/12 02:31:50;;;;;;;3.83;3.30;;;6.10;64.90;;;6.01;48.74;95344.44;5057743;28;20624;-54
2022/04/12 02:34:19;;;;;;;5.33;3.80;;;6.10;64.30;;;6.02;48.84;95353.13;5060426;28;20466;-55
2022/04/12 02:36:47;;;;;;;7.90;4.50;;;6.10;64.10;;;6.02;48.70;95353.13;5056481;28;20520;-55
2022/04/12 02:39:14;;;;;;;4.80;3.23;;;6.10;64.30;;;6.02;48.80;95361.78;5054937;28;20550;-55
2022/04/12 02:41:42;;;;;;;3.87;3.47;;;6.10;64.30;;;6.01;48.79;95354.03;5056677;28;20452;-55
2022/04/12 02:44:09;;;;;;;8.77;3.80;;;6.10;64.40;;;6.01;49.11;95357.50;5053200;28;20593;-54
2022/04/12 02:46:36;;;;;;;3.40;3.10;;;6.10;64.50;;;5.99;48.88;95350.69;5049773;28;20476;-55
2022/04/12 02:49:03;;;;;;;6.40;3.60;;;6.10;64.90;;;5.97;48.80;95355.19;5050522;28;20456;-56
2022/04/12 02:51:32;;;;;;;7.70;3.83;;;6.10;64.40;;;5.94;48.90;95353.56;5054734;28;20878;-55
2022/04/12 02:53:59;;;;;;;6.27;3.60;;;6.00;64.30;;;5.90;49.13;95352.09;5058015;28;20459;-54
2022/04/12 02:56:27;;;;;;;11.50;4.60;;;6.00;64.70;;;5.86;48.74;95361.91;5053625;28;20545;-55
2022/04/12 02:58:54;;;;;;;5.27;4.27;;;6.00;64.30;;;5.84;49.31;95360.31;5048951;28;20452;-55
2022/04/12 03:01:21;;;;;;;5.07;4.07;;;6.00;65.50;;;5.80;49.04;95356.25;5058994;28;20480;-56
2022/04/12 03:03:49;;;;;;;6.43;4.40;;;5.90;64.60;;;5.77;49.24;95356.44;5058300;28;20459;-55
2022/04/12 03:06:16;;;;;;;7.80;4.27;;;5.90;64.70;;;5.74;49.07;95352.25;5059653;28;20491;-56
2022/04/12 03:08:45;;;;;;;7.00;3.90;;;5.90;65.00;;;5.72;49.11;95360.19;5050649;28;20886;-55
2022/04/12 03:11:13;;;;;;;7.03;4.43;;;5.90;64.90;;;5.70;49.37;95362.06;5053799;28;20728;-56
2022/04/12 03:13:40;;;;;;;4.20;3.80;;;5.80;65.10;;;5.69;49.25;95356.94;5055340;28;20990;-55
2022/04/12 03:16:07;;;;;;;5.57;4.00;;;5.80;65.00;;;5.66;49.46;95350.13;5051283;28;20475;-56
2022/04/12 03:18:35;;;;;;;8.00;4.90;;;5.80;65.40;;;5.63;49.30;95352.94;5050434;28;20460;-54
2022/04/12 03:21:02;;;;;;;8.63;4.60;;;5.80;65.40;;;5.62;49.52;95353.88;5055323;28;20476;-58
2022/04/12 03:23:29;;;;;;;20.90;5.50;;;5.80;65.60;;;5.61;49.42;95352.22;5056550;28;20840;-55
2022/04/12 03:25:58;;;;;;;9.30;5.07;;;5.80;65.50;;;5.61;49.53;95354.81;5056288;28;20478;-56
2022/04/12 03:28:25;;;;;;;4.47;4.17;;;5.70;65.50;;;5.59;49.51;95356.66;5052852;28;20466;-56
2022/04/12 03:30:52;;;;;;;4.70;4.30;;;5.80;65.70;;;5.56;49.71;95367.28;5051873;28;20895;-55
2022/04/12 03:33:20;;;;;;;12.83;5.37;;;5.70;66.10;;;5.53;50.07;95364.88;5058221;28;20460;-55
2022/04/12 03:35:47;;;;;;;7.70;5.57;;;5.70;66.20;;;5.50;49.93;95365.06;5050535;28;20486;-55
2022/04/12 03:38:16;;;;;;;8.10;5.47;;;5.60;66.10;;;5.47;50.00;95365.25;5051796;28;20455;-55
2022/04/12 03:40:46;;;;;;;8.80;6.03;;;5.60;66.60;;;5.44;50.09;95370.69;5051242;28;20878;-56
2022/04/12 03:43:15;;;;;;;13.00;7.60;;;5.60;66.60;;;5.39;50.43;95370.97;5054994;28;20464;-55
2022/04/12 03:45:42;;;;;;;18.40;7.93;;;5.50;66.80;;;5.35;50.40;95370.31;5058063;28;20482;-53
2022/04/12 03:48:09;;;;;;;14.30;7.50;;;5.50;67.20;;;5.32;50.71;95369.69;5053153;28;21014;-54
2022/04/12 03:50:36;;;;;;;17.13;8.87;;;5.50;67.70;;;5.28;50.61;95371.63;5056564;28;20470;-54
2022/04/12 03:53:04;;;;;;;28.50;10.43;;;5.40;68.00;;;5.25;50.19;95369.25;5058085;28;20454;-55
2022/04/12 03:55:31;;;;;;;18.73;10.10;;;5.40;67.10;;;5.15;50.72;95368.13;5053890;28;21081;-55
2022/04/12 03:57:59;;;;;;;21.97;10.07;;;5.30;67.70;;;5.06;50.66;95368.69;5052365;28;20478;-57
2022/04/12 04:00:28;;;;;;;24.63;10.30;;;5.30;67.70;;;4.96;50.92;95377.06;5051123;28;20554;-57
2022/04/12 04:02:56;;;;;;;20.43;10.93;;;5.20;67.80;;;4.89;51.54;95375.75;5056551;28;20936;-55
2022/04/12 04:05:23;;;;;;;32.67;11.10;;;5.10;69.40;;;4.85;52.24;95379.50;5053268;28;20482;-54
2022/04/12 04:07:50;;;;;;;24.73;11.40;;;5.00;70.80;;;4.83;51.94;95378.72;5058483;28;20448;-57
2022/04/12 04:10:18;;;;;;;23.27;10.80;;;5.00;71.10;;;4.82;52.58;95390.94;5052643;28;20918;-56
2022/04/12 04:12:45;;;;;;;22.17;11.10;;;5.00;71.80;;;4.82;52.59;95392.72;5049686;28;20486;-55
2022/04/12 04:15:13;;;;;;;46.57;10.63;;;5.00;71.80;;;4.81;52.46;95388.41;5054301;28;20494;-55
2022/04/12 04:17:42;;;;;;;25.10;9.93;;;5.00;71.80;;;4.80;52.61;95389.34;5056983;28;20455;-56
2022/04/12 04:20:11;;;;;;;22.90;12.60;;;4.90;71.90;;;4.78;53.15;95384.22;5053154;28;20526;-56
2022/04/12 04:22:40;;;;;;;27.07;11.47;;;4.90;73.30;;;4.80;52.99;95386.72;5058153;28;20580;-57
2022/04/12 04:25:08;;;;;;;15.50;10.50;;;4.90;72.70;;;4.81;52.94;95391.84;5058148;28;20552;-54
2022/04/12 04:27:36;;;;;;;31.07;9.50;;;5.00;72.50;;;4.83;52.64;95381.34;5063426;28;20494;-56
2022/04/12 04:30:04;;;;;;;19.03;8.97;;;5.00;72.00;;;4.87;52.34;95397.66;5053335;28;21050;-57
2022/04/12 04:32:31;;;;;;;17.20;7.53;;;5.00;71.90;;;4.90;52.59;95394.84;5055400;28;20575;-55
2022/04/12 04:35:00;;;;;;;19.03;8.10;;;5.10;71.90;;;4.92;52.32;95396.41;5059405;28;20900;-57
2022/04/12 04:37:27;;;;;;;21.47;8.23;;;5.10;71.90;;;4.98;53.79;95400.44;5054246;28;20876;-55
2022/04/12 04:39:55;;;;;;;25.43;8.40;;;5.10;75.50;;;5.07;52.72;95409.47;5056430;28;21097;-59
2022/04/12 04:42:23;;;;;;;27.47;10.07;;;5.20;73.40;;;5.13;52.17;95409.94;5057962;28;20986;-56
2022/04/12 04:44:51;;;;;;;30.40;9.00;;;5.20;72.10;;;5.22;52.35;95413.75;5055762;28;21418;-57
2022/04/12 04:47:18;;;;;;;16.97;9.47;;;5.30;72.10;;;5.35;52.10;95411.22;5056449;28;20464;-54
2022/04/12 04:49:45;;;;;;;19.97;11.70;;;5.40;72.20;;;5.49;51.89;95421.66;5057618;28;20486;-55
2022/04/12 04:52:14;;;;;;;23.17;10.37;;;5.60;71.80;;;5.55;51.42;95423.88;5062973;28;20986;-55
2022/04/12 04:54:41;;;;;;;25.23;10.50;;;5.70;71.10;;;5.59;51.22;95421.06;5055551;28;20485;-57
2022/04/12 04:57:08;;;;;;;18.93;10.37;;;5.70;70.50;;;5.60;50.86;95415.75;5057016;28;20538;-57
2022/04/12 04:59:36;;;;;;;39.73;9.40;;;5.70;69.80;;;5.60;50.72;95420.97;5054972;28;20575;-56
2022/04/12 05:02:03;;;;;;;20.67;8.13;;;5.70;69.40;;;5.59;50.61;95419.28;5060023;28;20455;-55
2022/04/12 05:04:31;;;;;;;19.27;6.13;;;5.70;68.80;;;5.56;50.57;95417.72;5058737;28;20464;-57
2022/04/12 05:06:58;;;;;;;12.27;5.20;;;5.70;68.60;;;5.53;50.62;95424.88;5056030;28;20513;-55
2022/04/12 05:09:28;;;;;;;14.40;5.70;;;5.70;68.70;;;5.52;50.64;95420.63;5054136;28;20452;-57
2022/04/12 05:11:55;;;;;;;13.30;6.33;;;5.60;69.00;;;5.52;50.63;95425.84;5053416;28;20545;-55
2022/04/12 05:14:22;;;;;;;11.87;6.00;;;5.60;68.70;;;5.49;50.49;95426.03;5056681;28;20454;-56
2022/04/12 05:16:49;;;;;;;15.33;7.13;;;5.60;68.80;;;5.46;50.94;95421.00;5062254;28;20743;-56
2022/04/12 05:19:17;;;;;;;14.43;7.07;;;5.60;69.30;;;5.46;51.16;95416.63;5051161;28;20506;-58
2022/04/12 05:21:44;;;;;;;21.77;6.23;;;5.60;69.50;;;5.47;50.58;95423.53;5053025;28;20526;-56
2022/04/12 05:24:11;;;;;;;10.30;6.60;;;5.60;69.30;;;5.52;51.01;95420.63;5059007;28;20439;-57
2022/04/12 05:26:40;;;;;;;11.87;6.23;;;5.60;69.70;;;5.54;51.13;95423.97;5057573;28;20475;-56
2022/04/12 05:29:07;;;;;;;21.10;7.73;;;5.70;70.00;;;5.59;50.68;95423.69;5061578;28;20443;-55
2022/04/12 05:31:34;;;;;;;18.23;7.33;;;5.70;69.70;;;5.68;50.85;95426.53;5058875;28;20490;-56
2022/04/12 05:34:02;;;;;;;7.93;5.83;;;5.70;69.70;;;5.82;50.83;95427.47;5054936;28;20835;-56
2022/04/12 05:36:29;;;;;;;14.53;6.80;;;5.90;69.70;;;5.98;50.64;95422.13;5057972;28;21020;-55
2022/04/12 05:38:57;;;;;;;16.00;6.40;;;6.00;69.60;;;6.19;50.10;95422.53;5055176;28;20452;-56
2022/04/12 05:41:24;;;;;;;11.60;7.00;;;6.20;69.30;;;6.42;50.08;95421.03;5058408;28;20536;-56
2022/04/12 05:43:53;;;;;;;17.33;7.57;;;6.40;68.70;;;6.65;49.27;95409.06;5059395;28;20446;-56
2022/04/12 05:46:20;;;;;;;13.53;6.00;;;6.60;68.30;;;6.90;49.49;95423.09;5055887;28;20479;-55
2022/04/12 05:48:47;;;;;;;13.93;5.43;;;6.80;67.80;;;7.13;49.05;95422.34;5061634;28;20781;-56
2022/04/12 05:51:14;;;;;;;14.13;6.67;;;7.00;67.40;;;7.35;48.78;95420.88;5050814;28;20476;-56
2022/04/12 05:53:42;;;;;;;12.20;6.13;;;7.30;66.80;;;7.59;48.04;95409.63;5053626;28;20451;-55
2022/04/12 05:56:09;;;;;;;11.77;5.97;;;7.50;65.90;;;7.80;47.82;95421.19;5058801;28;21027;-54
2022/04/12 05:58:39;;;;;;;16.50;6.90;;;7.70;65.20;;;8.03;47.32;95418.72;5055746;28;20508;-56
2022/04/12 06:01:07;;;;;;;10.57;6.20;;;7.90;63.90;;;8.19;47.20;95416.66;5051203;28;20555;-56
2022/04/12 06:03:35;;;;;;;14.93;6.50;;;8.10;63.00;;;8.37;47.27;95422.34;5051336;28;20472;-58
2022/04/12 06:06:02;;;;;;;22.10;6.97;;;8.30;63.50;;;8.56;48.25;95419.22;5059090;28;20548;-55
2022/04/12 06:08:29;;;;;;;22.33;8.00;;;8.50;65.90;;;8.79;46.96;95427.16;5059878;28;20489;-57
2022/04/12 06:10:56;;;;;;;16.50;6.83;;;8.70;64.00;;;8.96;46.17;95428.53;5054951;28;20483;-57
2022/04/12 06:13:24;;;;;;;21.17;6.60;;;8.90;62.40;;;9.13;46.12;95432.50;5055374;28;20553;-57
2022/04/12 06:15:51;;;;;;;20.37;8.40;;;9.00;62.10;;;9.31;46.26;95435.47;5054729;28;20478;-57
2022/04/12 06:18:20;;;;;;;12.27;6.20;;;9.20;61.20;;;9.49;46.21;95434.06;5057925;28;20446;-55
2022/04/12 06:20:47;;;;;;;14.50;7.23;;;9.40;61.30;;;9.67;45.24;95441.47;5051823;28;20502;-55
2022/04/12 06:23:14;;;;;;;14.70;7.30;;;9.60;60.50;;;9.84;45.38;95442.78;5059040;28;20447;-55
2022/04/12 06:25:41;;;;;;;14.73;6.50;;;9.70;60.50;;;10.03;45.49;95442.97;5063087;28;20462;-57
2022/04/12 06:28:09;;;;;;;15.63;6.80;;;9.90;60.50;;;10.24;45.27;95436.97;5062145;28;20463;-56
2022/04/12 06:30:36;;;;;;;13.33;6.53;;;10.10;58.60;;;10.42;44.80;95441.72;5061176;28;20811;-56
2022/04/12 06:33:03;;;;;;;12.30;5.97;;;10.30;58.10;;;10.58;44.37;95439.50;5058448;28;20541;-57
2022/04/12 06:35:32;;;;;;;9.47;6.60;;;10.40;57.50;;;10.70;44.24;95435.84;5062255;28;20462;-58
2022/04/12 06:37:59;;;;;;;19.03;6.20;;;10.60;57.50;;;10.83;44.40;95440.09;5056600;28;20452;-58
2022/04/12 06:40:27;;;;;;;10.10;6.97;;;10.70;57.50;;;10.92;44.12;95434.94;5054733;28;20536;-58
2022/04/12 06:42:54;;;;;;;18.63;6.57;;;10.80;57.20;;;11.11;44.73;95442.13;5049675;28;20836;-57
2022/04/12 06:45:21;;;;;;;15.17;6.13;;;11.00;57.00;;;11.29;43.80;95441.50;5054381;28;20468;-55
2022/04/12 06:47:54;;;;;;;11.83;5.80;;;11.10;56.30;;;11.48;43.80;95446.06;5052487;28;20452;-56
2022/04/12 06:50:21;;;;;;;14.93;6.00;;;11.30;56.70;;;11.66;43.24;95441.00;5050058;28;20952;-56
2022/04/12 06:52:50;;;;;;;9.90;5.60;;;11.50;55.80;;;11.86;42.59;95444.56;5056725;28;20589;-56
2022/04/12 06:55:17;;;;;;;11.33;5.60;;;11.70;55.00;;;12.06;42.17;95442.03;5052625;28;20882;-57
2022/04/12 06:57:44;;;;;;;20.60;7.10;;;11.80;54.50;;;12.24;42.26;95437.75;5057008;28;20458;-56
2022/04/12 07:00:13;;;;;;;7.77;5.10;;;12.00;54.70;;;12.50;42.80;95431.94;5053371;28;20621;-56
2022/04/12 07:02:40;;;;;;;11.03;5.30;;;12.20;54.70;;;12.77;42.29;95423.34;5050582;28;20467;-57
2022/04/12 07:05:09;;;;;;;17.80;5.93;;;12.50;54.40;;;13.07;41.98;95432.94;5056069;28;20541;-57
2022/04/12 07:07:37;;;;;;;7.30;4.40;;;12.80;54.00;;;13.36;41.33;95433.88;5055516;28;20940;-56
2022/04/12 07:10:07;;;;;;;6.60;4.63;;;13.10;52.90;;;13.56;39.90;95418.78;5058924;28;20468;-56
2022/04/12 07:12:34;;;;;;;9.40;5.07;;;13.30;50.80;;;13.77;39.56;95424.69;5056256;28;20647;-57
2022/04/12 07:15:02;;;;;;;10.53;4.80;;;13.50;50.10;;;14.02;39.15;95418.84;5056149;28;20539;-56
2022/04/12 07:17:29;;;;;;;6.07;4.30;;;13.80;49.50;;;14.32;39.60;95421.16;5056270;28;20454;-57
2022/04/12 07:19:56;;;;;;;4.83;2.70;;;14.00;50.70;;;14.63;38.54;95417.38;5051942;28;21109;-57
2022/04/12 07:22:24;;;;;;;3.80;3.30;;;14.30;49.30;;;14.95;38.26;95424.78;5058599;28;20472;-57
2022/04/12 07:24:51;;;;;;;6.23;2.60;;;14.60;48.20;;;15.28;36.66;95422.38;5056173;28;20471;-56
2022/04/12 07:27:20;;;;;;;3.73;3.00;;;14.90;46.90;;;15.60;36.43;95428.88;5054310;28;20464;-56
2022/04/12 07:29:47;;;;;;;4.20;3.77;;;15.20;45.70;;;15.85;35.56;95431.66;5060344;28;20994;-56
2022/04/12 07:32:14;;;;;;;3.43;2.93;;;15.50;44.70;;;16.04;35.05;95418.16;5049265;28;20489;-56
2022/04/12 07:34:42;;;;;;;3.67;2.47;;;15.70;44.00;;;16.19;31.26;95422.84;5053790;28;20478;-57
2022/04/12 07:37:09;;;;;;;5.77;2.70;;;15.90;41.40;;;16.26;33.43;95430.00;5055121;28;20516;-57
2022/04/12 07:39:36;;;;;;;4.30;2.43;;;16.00;41.30;;;16.31;33.56;95429.53;5053299;28;20845;-56
2022/04/12 07:42:05;;;;;;;8.13;2.70;;;16.00;42.20;;;16.31;32.90;95427.72;5053737;28;20455;-57
2022/04/12 07:44:34;;;;;;;2.50;2.30;;;16.00;41.90;;;16.39;32.39;95415.44;5049620;28;20464;-58
2022/04/12 07:47:02;;;;;;;5.47;3.17;;;16.10;40.40;;;16.53;32.26;95411.31;5055522;28;20555;-56
2022/04/12 07:49:29;;;;;;;4.53;2.50;;;16.20;40.40;;;16.78;32.48;95413.03;5054269;28;20451;-58
2022/04/12 07:51:57;;;;;;;7.30;2.80;;;16.40;40.80;;;17.08;30.97;95420.53;5057482;28;21006;-58
2022/04/12 07:54:24;;;;;;;2.17;2.07;;;16.70;39.40;;;17.38;31.54;95419.88;5059040;28;20535;-57
2022/04/12 07:56:52;;;;;;;5.97;3.13;;;17.00;40.40;;;17.67;30.69;95413.13;5060270;28;20462;-56
2022/04/12 07:59:20;;;;;;;8.63;2.90;;;17.30;38.70;;;17.97;31.07;95416.09;5061168;28;20447;-57
2022/04/12 08:01:49;;;;;;;6.60;2.57;;;17.70;38.90;;;18.32;29.85;95413.91;5058844;28;20458;-56
2022/04/12 08:04:16;;;;;;;5.20;2.10;;;18.20;37.10;;;18.76;30.31;95402.69;5060784;28;20462;-57
2022/04/12 08:06:43;;;;;;;2.03;1.93;;;18.60;38.10;;;19.15;29.99;95399.06;5057460;28;20455;-56
2022/04/12 08:09:11;;;;;;;6.93;2.40;;;19.10;37.60;;;19.54;29.58;95405.22;5059402;28;20969;-58
2022/04/12 08:11:38;;;;;;;2.33;2.00;;;19.50;37.50;;;19.86;29.71;95408.56;5054220;28;20889;-56
2022/04/12 08:14:05;;;;;;;4.60;2.20;;;19.80;37.70;;;20.05;28.98;95405.34;5055086;28;21059;-56
2022/04/12 08:16:33;;;;;;;3.60;2.50;;;20.00;36.30;;;20.34;28.86;95398.31;5057199;28;20475;-57
2022/04/12 08:19:01;;;;;;;3.37;2.40;;;20.30;36.30;;;20.70;28.17;95394.81;5061892;28;20540;-55
2022/04/12 08:21:33;;;;;;;3.40;2.10;;;20.70;36.20;;;20.92;27.42;95390.28;5054655;28;20463;-56
2022/04/12 08:24:01;;;;;;;3.97;2.07;;;21.00;34.10;;;20.99;27.61;95385.03;5055312;28;20459;-57
2022/04/12 08:26:28;;;;;;;4.50;2.03;;;21.20;34.40;;;21.14;27.11;95391.09;5056625;28;20475;-56
2022/04/12 08:28:56;;;;;;;2.60;1.80;;;21.40;33.70;;;21.26;27.22;95388.75;5059564;28;20450;-58
2022/04/12 08:31:23;;;;;;;3.83;2.50;;;21.60;34.10;;;21.33;26.98;95390.63;5057482;28;20480;-57
2022/04/12 08:33:50;;;;;;;3.57;2.40;;;21.80;33.60;;;21.42;26.44;95390.28;5058795;28;20867;-57
2022/04/12 08:36:21;;;;;;;5.30;2.23;;;21.90;33.00;;;21.44;25.41;95382.91;5058793;28;20468;-56
2022/04/12 08:38:50;;;;;;;1.80;1.70;;;21.90;31.50;;;21.51;26.81;95371.47;5058924;28;20474;-56
2022/04/12 08:41:18;;;;;;;2.90;2.20;;;22.00;33.30;;;21.52;26.60;95373.94;5059350;28;20574;-57
2022/04/12 08:43:45;;;;;;;2.47;2.27;;;21.90;32.90;;;21.54;25.97;95376.44;5052263;28;20466;-56
2022/04/12 08:46:13;;;;;;;2.50;2.00;;;21.80;31.80;;;21.52;25.96;95373.09;5059394;28;20483;-57
2022/04/12 08:48:40;;;;;;;7.00;2.30;;;21.70;33.00;;;21.36;26.01;95377.69;5058068;28;20484;-57
2022/04/12 08:51:07;;;;;;;4.40;1.60;;;21.50;31.70;;;21.14;26.03;95369.69;5055993;28;20479;-56
2022/04/12 08:53:36;;;;;;;2.57;2.37;;;21.30;31.90;;;21.01;26.01;95371.47;5049454;28;20495;-56
2022/04/12 08:56:04;;;;;;;2.50;2.10;;;21.00;32.50;;;20.95;25.83;95373.03;5054667;28;20938;-56
2022/04/12 08:58:31;;;;;;;1.97;1.80;;;20.90;32.50;;;20.92;26.32;95362.72;5060044;28;20922;-57
2022/04/12 09:00:58;;;;;;;2.20;2.00;;;20.80;32.10;;;20.84;26.50;95350.31;5061311;28;20636;-56
2022/04/12 09:03:27;;;;;;;8.30;2.30;;;20.70;32.30;;;20.90;26.47;95354.09;5058651;28;20956;-57
2022/04/12 09:05:54;;;;;;;6.37;2.40;;;20.70;32.70;;;21.03;25.60;95356.84;5057291;28;20482;-56
2022/04/12 09:08:25;;;;;;;2.70;1.97;;;20.80;32.30;;;21.09;25.75;95357.94;5057392;28;20462;-56
2022/04/12 09:11:00;;;;;;;7.30;2.30;;;20.80;31.90;;;21.05;25.25;95357.50;5055458;28;20475;-55
2022/04/12 09:13:27;;;;;;;2.20;2.00;;;20.80;32.20;;;20.92;26.22;95344.00;5056195;28;20895;-56
2022/04/12 09:15:55;;;;;;;1.87;1.70;;;20.70;31.90;;;20.95;25.88;95346.31;5057304;28;20479;-55
2022/04/12 09:18:33;;;;;;;2.97;1.87;;;20.70;32.30;;;21.04;25.99;95333.63;5058055;28;20496;-56
2022/04/12 09:21:14;;;;;;;5.20;1.77;;;20.80;32.80;;;21.06;25.66;95332.41;5054240;28;20467;-57
2022/04/12 09:23:46;;;;;;;10.10;2.67;;;20.80;32.30;;;21.14;25.29;95340.28;5065151;28;20537;-56
2022/04/12 09:26:25;;;;;;;1.67;1.57;;;20.80;31.20;;;21.06;25.07;95332.41;5056253;28;20478;-57
2022/04/12 09:28:53;;;;;;;4.97;2.43;;;20.80;31.50;;;21.00;25.92;95335.03;5057003;28;20813;-55
2022/04/12 09:31:21;;;;;;;6.37;1.77;;;20.70;31.60;;;20.94;25.88;95320.56;5058437;28;20763;-55
2022/04/12 09:33:49;;;;;;;2.03;1.40;;;20.70;32.70;;;20.92;25.90;95331.47;5053658;28;20495;-55
2022/04/12 09:36:17;;;;;;;2.47;2.00;;;20.60;31.90;;;20.98;25.83;95319.19;5052967;28;20456;-57
2022/04/12 09:38:45;;;;;;;6.17;3.63;;;20.70;31.50;;;21.03;25.36;95322.09;5052677;28;20477;-57
2022/04/12 09:41:20;;;;;;;2.37;2.10;;;20.70;31.10;;;21.03;25.80;95315.91;5055490;28;20505;-58
2022/04/12 09:43:54;;;;;;;5.90;2.13;;;20.70;32.00;;;20.93;25.51;95314.41;5051432;28;20446;-57
2022/04/12 09:46:22;;;;;;;8.83;2.13;;;20.70;31.50;;;20.86;26.22;95310.03;5054274;28;20491;-56
2022/04/12 09:48:51;;;;;;;4.50;2.33;;;20.60;32.00;;;20.74;25.93;95313.22;5050771;28;20959;-56
2022/04/12 09:51:18;;;;;;;2.57;2.17;;;20.50;31.80;;;20.70;26.33;95306.59;5056927;28;20586;-57
2022/04/12 09:53:46;;;;;;;1.70;1.60;;;20.40;32.50;;;20.59;25.95;95304.41;5055431;28;20490;-56
2022/04/12 09:56:22;;;;;;;6.13;2.20;;;20.30;31.90;;;20.44;25.65;95295.63;5059371;28;20479;-55
2022/04/12 09:58:53;;;;;;;2.47;2.27;;;20.20;31.30;;;20.51;26.43;95291.16;5058297;28;20463;-58
2022/04/12 10:01:21;;;;;;;2.23;1.20;;;20.20;32.30;;;20.55;26.19;95281.75;5050514;28;20480;-55
2022/04/12 10:03:50;;;;;;;3.80;1.43;;;20.20;32.20;;;20.59;26.17;95277.69;5057640;28;20569;-57
2022/04/12 10:06:22;;;;;;;2.43;1.30;;;20.30;32.40;;;20.66;25.87;95283.94;5054680;28;20486;-56
2022/04/12 10:08:54;;;;;;;2.93;1.53;;;20.30;32.40;;;20.63;26.14;95278.94;5053396;28;20530;-56
2022/04/12 10:11:23;;;;;;;1.83;1.70;;;20.30;31.90;;;20.58;25.70;95270.69;5053552;28;20494;-56
2022/04/12 10:13:51;;;;;;;1.53;1.40;;;20.30;31.70;;;20.57;26.02;95259.19;5049114;28;20838;-57
2022/04/12 10:16:20;;;;;;;3.87;1.40;;;20.30;32.20;;;20.55;25.96;95260.38;5051458;28;20525;-56
2022/04/12 10:18:48;;;;;;;7.77;1.30;;;20.30;31.50;;;20.59;25.80;95256.31;5060928;28;20534;-57
2022/04/12 10:21:15;;;;;;;1.93;1.37;;;20.30;31.20;;;20.58;25.25;95254.66;5055875;28;21212;-56
2022/04/12 10:23:44;;;;;;;1.37;1.27;;;20.30;31.00;;;20.56;25.31;95240.66;5060632;28;20443;-55
2022/04/12 10:26:12;;;;;;;2.20;1.50;;;20.30;31.20;;;20.61;26.08;95240.91;5056102;28;20845;-55
2022/04/12 10:28:40;;;;;;;3.80;1.80;;;20.30;32.40;;;20.62;25.01;95237.22;5055477;28;20456;-56
2022/04/12 10:31:25;;;;;;;5.27;1.50;;;20.30;30.90;;;20.48;24.74;95235.44;5057644;28;20978;-56